Terminal Aerodrome Forecast
Issued by NWS Wilmington, OH

Home | Current Version | Previous Version | Text Only | Print | Product List | Glossary On
Versions: 1 2 3 4 5 6 7 8 9 10 11 12 13 14 15 16 17 18 19
000
FTUS41 KILN 161700
TAFILN
TAF
KILN 161740Z 1618/1718 11012KT P6SM BKN250
     FM170000 11007KT P6SM BKN250
     FM170900 14010KT P6SM BKN250
     FM171400 18012KT P6SM BKN250=

USA.gov is the U.S. government's official web portal to all federal, state and local government web resources and services.